createdAt,value
2017-05-25T00:00:45.467Z,99.90
2017-05-25T00:03:13.271Z,99.90
2017-05-25T00:05:40.783Z,99.90
2017-05-25T00:08:08.410Z,99.90
2017-05-25T00:10:35.903Z,99.90
2017-05-25T00:13:04.171Z,99.90
2017-05-25T00:15:32.042Z,99.90
2017-05-25T00:17:59.559Z,99.90
2017-05-25T00:20:27.083Z,99.90
2017-05-25T00:22:55.572Z,99.90
2017-05-25T00:25:23.126Z,99.90
2017-05-25T00:27:50.667Z,99.90
2017-05-25T00:30:18.232Z,99.90
2017-05-25T00:32:46.495Z,99.90
2017-05-25T00:35:13.989Z,99.90
2017-05-25T00:37:41.556Z,99.90
2017-05-25T00:40:10.112Z,99.90
2017-05-25T00:42:37.620Z,99.90
2017-05-25T00:45:05.172Z,99.90
2017-05-25T00:47:33.455Z,99.90
2017-05-25T00:50:01.027Z,99.90
2017-05-25T00:52:28.561Z,99.90
2017-05-25T00:54:56.868Z,99.90
2017-05-25T00:57:24.363Z,99.90
2017-05-25T00:59:52.114Z,99.90
2017-05-25T01:02:20.395Z,99.90
2017-05-25T01:04:48.704Z,99.90
2017-05-25T01:07:16.215Z,99.90
2017-05-25T01:09:43.761Z,99.90
2017-05-25T01:12:11.295Z,99.90
2017-05-25T01:14:39.628Z,99.90
2017-05-25T01:17:07.368Z,99.90
2017-05-25T01:19:34.906Z,99.90
2017-05-25T01:22:02.471Z,99.90
2017-05-25T01:24:30.745Z,99.90
2017-05-25T01:26:58.520Z,99.90
2017-05-25T01:29:26.016Z,99.90
2017-05-25T01:31:53.535Z,99.90
2017-05-25T01:34:21.028Z,99.90
2017-05-25T01:36:49.568Z,99.90
2017-05-25T01:39:17.081Z,99.90
2017-05-25T01:41:44.571Z,99.90
2017-05-25T01:44:12.091Z,99.90
2017-05-25T01:46:40.451Z,99.90
2017-05-25T01:49:08.280Z,99.90
2017-05-25T01:51:36.540Z,99.90
2017-05-25T01:54:04.067Z,99.90
2017-05-25T01:56:31.629Z,99.90
2017-05-25T01:58:59.176Z,99.90
2017-05-25T02:01:27.451Z,99.90
2017-05-25T02:03:55.767Z,99.90
2017-05-25T02:06:24.056Z,99.90
2017-05-25T02:08:51.912Z,99.90
2017-05-25T02:11:19.407Z,99.90
2017-05-25T02:13:46.925Z,99.90
2017-05-25T02:16:15.243Z,99.90
2017-05-25T02:18:43.524Z,99.90
2017-05-25T02:21:11.023Z,99.90
2017-05-25T02:23:38.525Z,99.90
2017-05-25T02:26:06.060Z,99.90
2017-05-25T02:28:33.555Z,99.90
2017-05-25T02:31:01.137Z,99.90
2017-05-25T02:33:29.655Z,99.90
2017-05-25T02:35:57.182Z,99.90
2017-05-25T02:38:25.520Z,99.90
2017-05-25T02:40:53.121Z,99.90
2017-05-25T02:43:20.687Z,99.90
2017-05-25T02:45:48.451Z,99.90
2017-05-25T02:48:16.756Z,99.90
2017-05-25T02:50:45.052Z,99.90
2017-05-25T02:53:12.552Z,99.90
2017-05-25T02:55:40.129Z,99.90
2017-05-25T02:58:07.684Z,99.90
2017-05-25T03:00:35.199Z,99.90
2017-05-25T03:03:03.459Z,99.90
2017-05-25T03:05:31.795Z,99.90
2017-05-25T03:07:59.317Z,99.90
2017-05-25T03:10:26.813Z,99.90
2017-05-25T03:12:55.097Z,99.90
2017-05-25T03:15:22.592Z,99.90
2017-05-25T03:17:50.115Z,99.90
2017-05-25T03:20:18.424Z,99.90
2017-05-25T03:22:45.989Z,99.90
2017-05-25T03:25:14.249Z,99.90
2017-05-25T03:27:42.557Z,99.90
2017-05-25T03:30:10.131Z,99.90
2017-05-25T03:32:37.627Z,99.90
2017-05-25T03:35:05.973Z,99.90
2017-05-25T03:37:34.255Z,99.90
2017-05-25T03:40:01.790Z,99.90
2017-05-25T03:42:30.053Z,99.90
2017-05-25T03:44:57.555Z,99.90
2017-05-25T03:47:25.376Z,99.90
2017-05-25T03:49:53.643Z,99.90
2017-05-25T03:52:21.186Z,99.90
2017-05-25T03:54:48.683Z,99.90
2017-05-25T03:57:17.272Z,99.90
2017-05-25T03:59:45.107Z,99.90
2017-05-25T04:02:13.370Z,99.90
2017-05-25T04:04:40.889Z,99.90
2017-05-25T04:07:08.423Z,99.90
2017-05-25T04:09:36.023Z,99.90
2017-05-25T04:12:03.523Z,99.90
2017-05-25T04:14:31.379Z,99.90
2017-05-25T04:16:58.913Z,99.90
2017-05-25T04:19:27.412Z,99.90
2017-05-25T04:21:55.696Z,99.90
2017-05-25T04:24:23.252Z,99.90
2017-05-25T04:26:51.828Z,99.90
2017-05-25T04:29:19.321Z,99.90
2017-05-25T04:31:46.885Z,99.90
2017-05-25T04:34:14.388Z,99.90
2017-05-25T04:36:41.903Z,99.90
2017-05-25T04:39:09.420Z,99.90
2017-05-25T04:41:37.683Z,99.90
2017-05-25T04:44:05.552Z,99.90
2017-05-25T04:46:33.808Z,99.90
2017-05-25T04:49:01.332Z,99.90
2017-05-25T04:51:28.887Z,99.90
2017-05-25T04:53:56.383Z,99.90
2017-05-25T04:56:23.916Z,99.90
2017-05-25T04:58:51.416Z,99.90
2017-05-25T05:01:18.973Z,99.90
2017-05-25T05:03:46.536Z,99.90
2017-05-25T05:06:14.388Z,99.90
2017-05-25T05:08:42.653Z,99.90
2017-05-25T05:11:10.160Z,99.90
2017-05-25T05:13:37.731Z,99.90
2017-05-25T05:16:06.041Z,99.90
2017-05-25T05:18:33.856Z,99.90
2017-05-25T05:21:02.396Z,99.90
2017-05-25T05:23:30.732Z,99.90
2017-05-25T05:25:58.255Z,99.90
2017-05-25T05:28:26.527Z,99.90
2017-05-25T05:30:54.808Z,99.90
2017-05-25T05:33:22.308Z,99.90
2017-05-25T05:35:49.831Z,99.90
2017-05-25T05:38:18.097Z,99.90
2017-05-25T05:40:45.648Z,99.90
2017-05-25T05:43:13.144Z,99.90
2017-05-25T05:45:41.452Z,99.90
2017-05-25T05:48:08.972Z,99.90
2017-05-25T05:50:37.236Z,99.90
2017-05-25T05:53:04.756Z,99.90
2017-05-25T05:55:33.020Z,99.90
2017-05-25T05:58:00.616Z,99.90
2017-05-25T06:00:28.884Z,99.90
2017-05-25T06:02:57.158Z,99.90
2017-05-25T06:05:24.772Z,99.90
2017-05-25T06:07:52.572Z,99.90
2017-05-25T06:10:20.872Z,99.90
2017-05-25T06:12:48.372Z,99.90
2017-05-25T06:15:16.711Z,99.90
2017-05-25T06:17:44.640Z,99.90
2017-05-25T06:20:12.215Z,99.90
2017-05-25T06:22:40.500Z,99.90
2017-05-25T06:25:08.805Z,99.90
2017-05-25T06:27:37.132Z,99.90
2017-05-25T06:30:04.658Z,99.90
2017-05-25T06:32:32.230Z,99.90
2017-05-25T06:35:00.492Z,99.90
2017-05-25T06:37:28.027Z,99.90
2017-05-25T06:39:55.628Z,99.90
2017-05-25T06:42:24.004Z,99.90
2017-05-25T06:44:52.321Z,99.90
2017-05-25T06:47:20.592Z,99.90
2017-05-25T06:49:48.385Z,99.90
2017-05-25T06:52:16.070Z,99.90
2017-05-25T06:54:44.341Z,99.90
2017-05-25T06:57:11.889Z,99.90
2017-05-25T06:59:40.285Z,99.90
2017-05-25T07:02:07.832Z,99.90
2017-05-25T07:04:35.335Z,99.90
2017-05-25T07:07:02.911Z,99.90
2017-05-25T07:09:30.424Z,99.90
2017-05-25T07:11:58.731Z,99.90
2017-05-25T07:14:26.474Z,99.90
2017-05-25T07:16:54.066Z,99.90
2017-05-25T07:19:22.399Z,99.90
2017-05-25T07:21:49.944Z,99.90
2017-05-25T07:24:17.512Z,99.90
2017-05-25T07:26:46.048Z,99.90
2017-05-25T07:29:13.736Z,99.90
2017-05-25T07:31:41.355Z,99.90
2017-05-25T07:34:08.897Z,99.90
2017-05-25T07:36:36.816Z,99.90
2017-05-25T07:39:05.401Z,99.90
2017-05-25T07:41:32.984Z,99.90
2017-05-25T07:44:01.319Z,99.90
2017-05-25T07:46:29.179Z,99.90
2017-05-25T07:48:57.507Z,90.60
2017-05-25T07:51:25.044Z,90.60
2017-05-25T07:53:52.564Z,90.40
2017-05-25T07:56:20.088Z,94.50
2017-05-25T07:58:48.711Z,95.60
2017-05-25T08:01:16.279Z,95.80
2017-05-25T08:03:43.801Z,91.30
2017-05-25T08:06:11.404Z,93.40
2017-05-25T08:08:39.735Z,95.90
2017-05-25T08:11:07.724Z,96.00
2017-05-25T08:13:35.622Z,97.10
2017-05-25T08:16:03.489Z,98.00
2017-05-25T08:18:31.012Z,99.90
2017-05-25T08:20:58.516Z,99.90
2017-05-25T08:23:26.833Z,99.90
2017-05-25T08:25:54.336Z,99.90
2017-05-25T08:28:21.889Z,99.90
2017-05-25T08:30:50.173Z,90.80
2017-05-25T08:33:18.753Z,81.30
2017-05-25T08:35:47.048Z,67.40
2017-05-25T08:38:15.776Z,66.10
2017-05-25T08:40:43.337Z,66.30
2017-05-25T08:43:11.628Z,76.10
2017-05-25T08:45:39.133Z,76.40
2017-05-25T08:48:06.929Z,84.60
2017-05-25T08:50:34.459Z,87.10
2017-05-25T08:53:04.056Z,97.30
2017-05-25T08:55:31.955Z,97.30
2017-05-25T08:57:59.740Z,95.10
2017-05-25T09:00:27.332Z,94.00
2017-05-25T09:02:55.048Z,90.30
2017-05-25T09:05:22.572Z,76.40
2017-05-25T09:07:50.103Z,62.30
2017-05-25T09:10:20.785Z,75.20
2017-05-25T09:12:48.545Z,80.30
2017-05-25T09:15:16.342Z,71.30
2017-05-25T09:17:43.846Z,66.10
2017-05-25T09:20:12.187Z,60.90
2017-05-25T09:22:40.003Z,60.60
2017-05-25T09:25:08.267Z,64.50
2017-05-25T09:27:35.862Z,64.60
2017-05-25T09:30:04.424Z,51.30
2017-05-25T09:32:32.075Z,51.40
2017-05-25T09:35:00.370Z,66.90
2017-05-25T09:37:28.974Z,70.60
2017-05-25T09:39:57.284Z,79.90
2017-05-25T09:42:24.813Z,80.50
2017-05-25T09:44:53.348Z,88.20
2017-05-25T09:47:21.667Z,84.40
2017-05-25T09:49:50.020Z,76.20
2017-05-25T09:52:17.536Z,76.10
2017-05-25T09:54:46.138Z,77.90
2017-05-25T09:57:14.484Z,75.40
2017-05-25T09:59:41.995Z,75.70
2017-05-25T10:02:09.559Z,80.50
2017-05-25T10:04:37.106Z,82.00
2017-05-25T10:07:05.422Z,92.40
2017-05-25T10:09:32.969Z,92.40
2017-05-25T10:12:01.248Z,76.20
2017-05-25T10:14:28.788Z,76.20
2017-05-25T10:16:56.288Z,76.00
2017-05-25T10:19:24.584Z,68.90
2017-05-25T10:21:52.445Z,69.10
2017-05-25T10:24:20.754Z,66.40
2017-05-25T10:26:48.315Z,66.30
2017-05-25T10:29:16.175Z,74.60
2017-05-25T10:31:44.462Z,73.80
2017-05-25T10:34:12.748Z,78.10
2017-05-25T10:36:40.300Z,78.10
2017-05-25T10:39:07.835Z,88.00
2017-05-25T10:41:36.151Z,86.50
2017-05-25T10:44:03.943Z,86.50
2017-05-25T10:46:31.448Z,91.30
2017-05-25T10:48:58.997Z,80.30
2017-05-25T10:51:27.271Z,72.50
2017-05-25T10:53:55.595Z,73.50
2017-05-25T10:56:23.119Z,73.30
2017-05-25T10:58:50.738Z,68.90
2017-05-25T11:01:19.008Z,59.80
2017-05-25T11:03:47.282Z,59.70
2017-05-25T11:06:15.571Z,66.60
2017-05-25T11:08:43.068Z,66.60
2017-05-25T11:11:11.433Z,69.40
2017-05-25T11:13:39.703Z,68.80
2017-05-25T11:16:08.336Z,70.20
2017-05-25T11:18:37.016Z,74.80
2017-05-25T11:21:05.339Z,66.90
2017-05-25T11:23:32.855Z,64.80
2017-05-25T11:26:01.127Z,57.40
2017-05-25T11:28:28.684Z,57.30
2017-05-25T11:30:56.948Z,62.80
2017-05-25T11:33:25.236Z,68.60
2017-05-25T11:35:53.501Z,70.50
2017-05-25T11:38:21.815Z,79.90
2017-05-25T11:40:49.379Z,80.60
2017-05-25T11:43:17.687Z,71.10
2017-05-25T11:45:45.976Z,70.00
2017-05-25T11:48:13.769Z,69.90
2017-05-25T11:50:41.383Z,65.50
2017-05-25T11:53:08.883Z,64.00
2017-05-25T11:55:36.377Z,67.70
2017-05-25T11:58:04.664Z,71.30
2017-05-25T12:00:33.536Z,63.80
2017-05-25T12:03:01.096Z,63.80
2017-05-25T12:05:29.361Z,61.70
2017-05-25T12:07:56.906Z,61.70
2017-05-25T12:10:24.407Z,64.70
2017-05-25T12:12:51.919Z,74.70
2017-05-25T12:15:19.439Z,71.00
2017-05-25T12:17:46.979Z,71.30
2017-05-25T12:20:14.535Z,69.20
2017-05-25T12:22:42.094Z,67.80
2017-05-25T12:25:10.459Z,62.00
2017-05-25T12:27:37.964Z,62.00
2017-05-25T12:30:05.534Z,61.10
2017-05-25T12:32:33.395Z,54.00
2017-05-25T12:35:01.743Z,51.20
2017-05-25T12:37:29.280Z,51.30
2017-05-25T12:39:57.596Z,57.80
2017-05-25T12:42:25.884Z,56.80
2017-05-25T12:44:54.184Z,56.40
2017-05-25T12:47:22.061Z,56.30
2017-05-25T12:49:49.859Z,62.80
2017-05-25T12:52:17.360Z,55.50
2017-05-25T12:54:44.932Z,56.30
2017-05-25T12:57:13.240Z,57.70
2017-05-25T12:59:41.853Z,67.80
2017-05-25T13:02:10.525Z,60.70
2017-05-25T13:04:38.794Z,64.80
2017-05-25T13:07:06.315Z,65.00
2017-05-25T13:09:34.050Z,62.60
2017-05-25T13:12:01.597Z,59.00
2017-05-25T13:14:29.911Z,70.70
2017-05-25T13:16:57.440Z,71.70
2017-05-25T13:19:25.081Z,62.70
2017-05-25T13:21:52.588Z,67.10
2017-05-25T13:24:21.191Z,58.80
2017-05-25T13:26:48.688Z,58.60
2017-05-25T13:29:16.245Z,58.90
2017-05-25T13:31:44.512Z,56.30
2017-05-25T13:34:12.065Z,56.30
2017-05-25T13:36:39.581Z,60.20
2017-05-25T13:39:07.849Z,61.60
2017-05-25T13:41:36.482Z,58.20
2017-05-25T13:44:04.799Z,55.50
2017-05-25T13:46:33.080Z,59.80
2017-05-25T13:49:00.580Z,59.90
2017-05-25T13:51:28.140Z,64.30
2017-05-25T13:53:56.412Z,63.30
2017-05-25T13:56:24.775Z,60.50
2017-05-25T13:58:52.333Z,60.50
2017-05-25T14:01:20.908Z,64.10
2017-05-25T14:03:49.189Z,66.30
2017-05-25T14:06:17.457Z,69.30
2017-05-25T14:08:46.037Z,70.20
2017-05-25T14:11:13.579Z,70.30
2017-05-25T14:13:41.080Z,66.60
2017-05-25T14:16:08.914Z,52.00
2017-05-25T14:18:36.675Z,52.20
2017-05-25T14:21:04.227Z,52.50
2017-05-25T14:23:31.759Z,54.60
2017-05-25T14:26:00.069Z,57.00
2017-05-25T14:28:28.383Z,55.10
2017-05-25T14:30:55.927Z,55.00
2017-05-25T14:33:24.299Z,54.00
2017-05-25T14:35:52.872Z,46.40
2017-05-25T14:38:20.559Z,46.40
2017-05-25T14:40:48.878Z,48.80
2017-05-25T14:43:17.188Z,48.30
2017-05-25T14:45:44.736Z,48.20
2017-05-25T14:48:12.243Z,50.60
2017-05-25T14:50:40.576Z,50.80
2017-05-25T14:53:08.072Z,50.30
2017-05-25T14:55:36.382Z,50.70
2017-05-25T14:58:03.939Z,50.60
2017-05-25T15:00:31.660Z,51.10
2017-05-25T15:02:59.228Z,50.00
2017-05-25T15:05:26.727Z,53.60
2017-05-25T15:07:55.101Z,51.90
2017-05-25T15:10:22.609Z,52.00
2017-05-25T15:12:50.112Z,51.00
2017-05-25T15:15:18.616Z,49.50
2017-05-25T15:17:46.772Z,49.40
2017-05-25T15:20:14.417Z,50.50
2017-05-25T15:22:41.972Z,52.00
2017-05-25T15:25:09.532Z,54.70
2017-05-25T15:27:37.304Z,55.60
2017-05-25T15:30:04.823Z,57.90
2017-05-25T15:32:32.357Z,61.00
2017-05-25T15:34:59.953Z,58.10
2017-05-25T15:37:28.268Z,60.90
2017-05-25T15:39:56.733Z,61.70
2017-05-25T15:42:24.315Z,61.70
2017-05-25T15:44:51.845Z,60.70
2017-05-25T15:47:20.427Z,66.40
2017-05-25T15:49:48.003Z,66.50
2017-05-25T15:52:16.263Z,67.70
2017-05-25T15:54:45.001Z,66.10
2017-05-25T15:57:13.275Z,64.40
2017-05-25T15:59:41.622Z,65.00
2017-05-25T16:02:09.962Z,66.00
2017-05-25T16:04:37.491Z,66.20
2017-05-25T16:07:05.832Z,68.00
2017-05-25T16:09:33.360Z,68.00
2017-05-25T16:12:00.917Z,65.10
2017-05-25T16:14:28.416Z,62.10
2017-05-25T16:16:56.051Z,61.30
2017-05-25T16:19:24.353Z,59.20
2017-05-25T16:21:51.847Z,59.20
2017-05-25T16:24:19.723Z,60.20
2017-05-25T16:26:48.023Z,58.00
2017-05-25T16:29:16.367Z,59.70
2017-05-25T16:31:43.901Z,58.30
2017-05-25T16:34:12.408Z,61.20
2017-05-25T16:36:40.814Z,61.10
2017-05-25T16:39:09.081Z,59.70
2017-05-25T16:41:37.644Z,55.80
2017-05-25T16:44:05.217Z,56.80
2017-05-25T16:46:33.507Z,59.50
2017-05-25T16:49:01.008Z,59.60
2017-05-25T16:51:28.824Z,62.90
2017-05-25T16:53:56.364Z,65.10
2017-05-25T16:56:23.871Z,62.50
2017-05-25T16:58:52.196Z,64.10
2017-05-25T17:01:20.529Z,68.20
2017-05-25T17:03:48.144Z,68.20
2017-05-25T17:06:15.685Z,67.00
2017-05-25T17:08:43.444Z,69.20
2017-05-25T17:11:10.976Z,70.10
2017-05-25T17:13:38.530Z,72.70
2017-05-25T17:16:06.043Z,75.80
2017-05-25T17:18:34.358Z,76.80
2017-05-25T17:21:02.672Z,76.00
2017-05-25T17:23:30.207Z,75.80
2017-05-25T17:25:57.801Z,77.50
2017-05-25T17:28:25.690Z,83.20
2017-05-25T17:30:53.191Z,84.50
2017-05-25T17:33:20.743Z,89.40
2017-05-25T17:35:48.244Z,91.20
2017-05-25T17:38:15.796Z,92.80
2017-05-25T17:40:44.069Z,97.60
2017-05-25T17:43:11.573Z,97.50
2017-05-25T17:45:39.908Z,99.90
2017-05-25T17:48:07.615Z,99.90
2017-05-25T17:50:35.398Z,99.90
2017-05-25T17:53:02.959Z,99.90
2017-05-25T17:55:30.537Z,99.90
2017-05-25T17:57:58.069Z,99.90
2017-05-25T18:00:25.895Z,99.90
2017-05-25T18:02:53.453Z,99.90
2017-05-25T18:05:21.761Z,99.90
2017-05-25T18:07:50.074Z,99.90
2017-05-25T18:10:17.644Z,99.90
2017-05-25T18:12:45.468Z,99.90
2017-05-25T18:15:12.967Z,99.90
2017-05-25T18:17:40.526Z,99.90
2017-05-25T18:20:08.067Z,99.90
2017-05-25T18:22:36.559Z,99.90
2017-05-25T18:25:04.113Z,99.90
2017-05-25T18:27:31.948Z,99.90
2017-05-25T18:30:00.329Z,99.90
2017-05-25T18:32:28.616Z,99.90
2017-05-25T18:34:56.935Z,99.90
2017-05-25T18:37:24.452Z,99.90
2017-05-25T18:39:51.987Z,99.90
2017-05-25T18:42:20.311Z,99.90
2017-05-25T18:44:48.119Z,99.90
2017-05-25T18:47:15.624Z,99.90
2017-05-25T18:49:43.139Z,99.90
2017-05-25T18:52:10.644Z,99.90
2017-05-25T18:54:38.235Z,99.90
2017-05-25T18:57:06.508Z,99.90
2017-05-25T18:59:34.025Z,99.90
2017-05-25T19:02:01.956Z,99.90
2017-05-25T19:04:29.573Z,99.90
2017-05-25T19:06:58.023Z,99.90
2017-05-25T19:09:25.581Z,99.90
2017-05-25T19:11:53.206Z,99.90
2017-05-25T19:14:20.767Z,99.90
2017-05-25T19:16:48.336Z,99.90
2017-05-25T19:19:15.860Z,99.90
2017-05-25T19:21:46.165Z,99.90
2017-05-25T19:24:13.695Z,99.90
2017-05-25T19:26:42.120Z,99.90
2017-05-25T19:29:09.690Z,99.90
2017-05-25T19:31:37.247Z,99.90
2017-05-25T19:34:04.763Z,99.90
2017-05-25T19:36:33.379Z,99.90
2017-05-25T19:39:00.880Z,99.90
2017-05-25T19:41:28.491Z,99.90
2017-05-25T19:43:56.260Z,99.90
2017-05-25T19:46:24.725Z,99.90
2017-05-25T19:48:54.185Z,99.90
2017-05-25T19:51:21.980Z,99.90
2017-05-25T19:53:50.267Z,99.90
2017-05-25T19:56:17.820Z,99.90
2017-05-25T19:58:45.699Z,99.90
2017-05-25T20:01:13.231Z,99.90
2017-05-25T20:03:41.124Z,99.90
2017-05-25T20:06:08.663Z,99.90
2017-05-25T20:08:36.989Z,99.90
2017-05-25T20:11:04.816Z,99.90
2017-05-25T20:13:33.087Z,99.90
2017-05-25T20:16:00.637Z,99.90
2017-05-25T20:18:28.512Z,99.90
2017-05-25T20:20:56.065Z,99.90
2017-05-25T20:23:23.595Z,99.90
2017-05-25T20:25:51.392Z,99.90
2017-05-25T20:28:19.675Z,99.90
2017-05-25T20:30:47.991Z,99.90
2017-05-25T20:33:15.513Z,99.90
2017-05-25T20:35:44.080Z,99.90
2017-05-25T20:38:11.639Z,99.90
2017-05-25T20:40:39.961Z,99.90
2017-05-25T20:43:08.228Z,99.90
2017-05-25T20:45:36.560Z,99.90
2017-05-25T20:48:04.064Z,99.90
2017-05-25T20:50:31.670Z,99.90
2017-05-25T20:52:59.940Z,99.90
2017-05-25T20:55:27.538Z,99.90
2017-05-25T20:57:55.173Z,99.90
2017-05-25T21:00:23.469Z,99.90
2017-05-25T21:02:51.035Z,99.90
2017-05-25T21:05:18.605Z,99.90
2017-05-25T21:07:46.186Z,99.90
2017-05-25T21:10:13.692Z,99.90
2017-05-25T21:12:41.975Z,99.90
2017-05-25T21:15:09.482Z,99.90
2017-05-25T21:17:37.796Z,99.90
2017-05-25T21:20:05.540Z,99.90
2017-05-25T21:22:33.342Z,99.90
2017-05-25T21:25:00.864Z,99.90
2017-05-25T21:27:29.133Z,99.90
2017-05-25T21:29:57.783Z,99.90
2017-05-25T21:32:26.092Z,99.90
2017-05-25T21:34:54.363Z,99.90
2017-05-25T21:37:22.627Z,99.90
2017-05-25T21:39:50.892Z,99.90
2017-05-25T21:42:18.447Z,99.90
2017-05-25T21:44:45.944Z,99.90
2017-05-25T21:47:14.227Z,99.90
2017-05-25T21:49:41.730Z,99.90
2017-05-25T21:52:10.103Z,99.90
2017-05-25T21:54:37.914Z,99.90
2017-05-25T21:57:06.542Z,99.90
2017-05-25T21:59:34.109Z,99.90
2017-05-25T22:02:02.455Z,99.90
2017-05-25T22:04:30.836Z,99.90
2017-05-25T22:06:58.452Z,99.90
2017-05-25T22:09:26.780Z,99.90
2017-05-25T22:11:55.043Z,99.90
2017-05-25T22:14:22.618Z,99.90
2017-05-25T22:16:50.158Z,99.90
2017-05-25T22:19:18.424Z,99.90
2017-05-25T22:21:46.261Z,99.90
2017-05-25T22:24:13.870Z,99.90
2017-05-25T22:26:41.624Z,99.90
2017-05-25T22:29:09.447Z,99.90
2017-05-25T22:31:37.727Z,99.90
2017-05-25T22:34:05.258Z,99.90
2017-05-25T22:36:32.817Z,99.90
2017-05-25T22:39:01.152Z,99.90
2017-05-25T22:41:28.660Z,99.90
2017-05-25T22:43:56.963Z,99.90
2017-05-25T22:46:24.511Z,99.90
2017-05-25T22:48:52.063Z,99.90
2017-05-25T22:51:20.383Z,99.90
2017-05-25T22:53:47.888Z,99.90
2017-05-25T22:56:15.456Z,99.90
2017-05-25T22:58:42.998Z,99.90
2017-05-25T23:01:11.579Z,99.90
2017-05-25T23:03:40.164Z,99.90
2017-05-25T23:06:07.794Z,99.90
2017-05-25T23:08:36.108Z,99.90
2017-05-25T23:11:03.615Z,99.90
2017-05-25T23:13:31.947Z,99.90
2017-05-25T23:16:00.282Z,99.90
2017-05-25T23:18:27.833Z,99.90
2017-05-25T23:20:55.336Z,99.90
2017-05-25T23:23:22.920Z,99.90
2017-05-25T23:25:50.427Z,99.90
2017-05-25T23:28:19.024Z,99.90
2017-05-25T23:30:47.600Z,99.90
2017-05-25T23:33:15.103Z,99.90
2017-05-25T23:35:42.742Z,99.90
2017-05-25T23:38:11.011Z,99.90
2017-05-25T23:40:38.584Z,99.90
2017-05-25T23:43:06.086Z,99.90
2017-05-25T23:45:34.355Z,99.90
2017-05-25T23:48:02.113Z,99.90
2017-05-25T23:50:29.619Z,99.90
2017-05-25T23:52:57.921Z,99.90
2017-05-25T23:55:26.184Z,99.90
2017-05-25T23:57:54.507Z,99.90
